Time;durP1;ratioP1;P1;durP2;ratioP2;P2;SDS_P1;SDS_P2;PMS_P1;PMS_P2;Temp;Humidity;BMP_temperature;BMP_pressure;BME280_temperature;BME280_humidity;BME280_pressure;Samples;Min_cycle;Max_cycle;Signal;HPM_P1;HPM_P2
2021/11/18 00:01:55;;;;;;;28.75;16.45;;;5.70;99.90;;;;;;5053720;28;20037;-55
2021/11/18 00:04:21;;;;;;;23.92;16.25;;;5.70;99.90;;;;;;5051694;28;20051;-52
2021/11/18 00:06:48;;;;;;;24.55;15.85;;;5.80;99.90;;;;;;5054635;28;20035;-54
2021/11/18 00:09:16;;;;;;;23.98;16.05;;;5.80;99.90;;;;;;5063380;28;20041;-56
2021/11/18 00:11:41;;;;;;;27.40;17.35;;;5.90;99.90;;;;;;5068919;28;20071;-57
2021/11/18 00:14:07;;;;;;;24.80;17.52;;;5.90;99.90;;;;;;5057378;28;20028;-57
2021/11/18 00:16:34;;;;;;;25.27;16.10;;;6.00;99.90;;;;;;5048726;28;20032;-54
2021/11/18 00:18:59;;;;;;;23.05;17.02;;;6.00;99.90;;;;;;5044967;28;20025;-54
2021/11/18 00:21:30;;;;;;;22.38;16.30;;;6.00;99.90;;;;;;5045051;28;20470;-55
2021/11/18 00:23:58;;;;;;;26.17;17.30;;;6.00;99.90;;;;;;5043918;28;20041;-54
2021/11/18 00:26:26;;;;;;;27.55;18.55;;;6.00;99.90;;;;;;5043500;28;20037;-57
2021/11/18 00:28:52;;;;;;;26.38;16.63;;;5.90;99.90;;;;;;5041618;28;20021;-53
2021/11/18 00:31:21;;;;;;;25.85;17.15;;;6.10;99.90;;;;;;5045755;28;20040;-52
2021/11/18 00:33:47;;;;;;;25.50;16.30;;;6.10;99.90;;;;;;5042637;28;20021;-52
2021/11/18 00:36:15;;;;;;;27.77;18.10;;;6.20;99.90;;;;;;5043244;28;20033;-52
2021/11/18 00:38:42;;;;;;;25.05;17.77;;;6.20;99.90;;;;;;5045737;28;20037;-52
2021/11/18 00:41:07;;;;;;;26.58;17.63;;;6.20;99.90;;;;;;5040868;28;20079;-58
2021/11/18 00:43:33;;;;;;;27.30;17.75;;;6.20;99.90;;;;;;5044125;28;20033;-55
2021/11/18 00:45:59;;;;;;;27.77;17.67;;;6.20;99.90;;;;;;5042396;28;20037;-54
2021/11/18 00:48:25;;;;;;;28.63;18.88;;;6.10;99.90;;;;;;5046598;28;20072;-58
2021/11/18 00:51:12;;;;;;;30.02;18.02;;;6.10;99.90;;;;;;5047344;28;20041;-54
2021/11/18 00:53:42;;;;;;;25.90;17.88;;;6.10;99.90;;;;;;5041668;28;20025;-58
2021/11/18 00:56:07;;;;;;;25.73;17.38;;;6.20;99.90;;;;;;5041592;28;20025;-54
2021/11/18 00:58:34;;;;;;;24.85;17.33;;;6.10;99.90;;;;;;5043476;28;20453;-56
2021/11/18 01:00:59;;;;;;;24.35;17.70;;;6.20;99.90;;;;;;5040593;28;20098;-58
2021/11/18 01:03:26;;;;;;;30.30;17.48;;;6.20;99.90;;;;;;5047057;28;20045;-51
2021/11/18 01:05:54;;;;;;;30.48;18.50;;;6.10;99.90;;;;;;5041292;28;20029;-56
2021/11/18 01:08:21;;;;;;;29.45;18.88;;;6.20;99.90;;;;;;5044204;28;20116;-52
2021/11/18 01:10:51;;;;;;;26.00;17.58;;;6.10;99.90;;;;;;5041610;28;20036;-53
2021/11/18 01:13:20;;;;;;;27.65;19.52;;;6.20;99.90;;;;;;5042024;28;20028;-53
2021/11/18 01:15:47;;;;;;;28.80;19.33;;;6.30;99.90;;;;;;5040866;28;20523;-55
2021/11/18 01:18:13;;;;;;;31.48;19.10;;;6.20;99.90;;;;;;5044561;28;20131;-55
2021/11/18 01:20:41;;;;;;;25.80;17.98;;;6.30;99.90;;;;;;5043684;28;20084;-51
2021/11/18 01:23:10;;;;;;;25.08;17.83;;;6.30;99.90;;;;;;5043965;28;20026;-53
2021/11/18 01:25:37;;;;;;;27.55;19.60;;;6.20;99.90;;;;;;5040936;28;20116;-58
2021/11/18 01:28:06;;;;;;;26.38;18.45;;;6.30;99.90;;;;;;5040205;28;20029;-54
2021/11/18 01:30:34;;;;;;;27.77;19.38;;;6.30;99.90;;;;;;5041216;28;20036;-53
2021/11/18 01:33:02;;;;;;;28.17;19.70;;;6.30;99.90;;;;;;5040143;28;20037;-49
2021/11/18 01:35:27;;;;;;;30.55;20.10;;;6.30;99.90;;;;;;5043092;28;20029;-55
2021/11/18 01:37:53;;;;;;;29.70;18.92;;;6.20;99.90;;;;;;5041520;28;20388;-50
2021/11/18 01:40:24;;;;;;;30.42;18.80;;;6.20;99.90;;;;;;5040309;28;20043;-52
2021/11/18 01:42:52;;;;;;;27.63;18.67;;;6.20;99.90;;;;;;5039364;28;20035;-52
2021/11/18 01:45:20;;;;;;;27.90;18.27;;;6.20;99.90;;;;;;5039998;28;20449;-52
2021/11/18 01:47:46;;;;;;;27.77;18.83;;;6.20;99.90;;;;;;5040310;28;20056;-49
2021/11/18 01:50:15;;;;;;;29.77;19.77;;;6.20;99.90;;;;;;5040399;28;20071;-53
2021/11/18 01:52:44;;;;;;;28.17;17.85;;;6.30;99.90;;;;;;5050848;28;20032;-53
2021/11/18 01:55:09;;;;;;;29.27;19.10;;;6.20;99.90;;;;;;5050802;28;20119;-49
2021/11/18 01:57:36;;;;;;;29.70;19.48;;;6.20;99.90;;;;;;5051060;28;20455;-53
2021/11/18 02:00:13;;;;;;;30.90;18.67;;;6.20;99.90;;;;;;5052849;28;20033;-50
2021/11/18 02:02:38;;;;;;;27.45;18.70;;;6.20;99.90;;;;;;5052810;28;20033;-57
2021/11/18 02:05:09;;;;;;;30.25;18.45;;;6.10;99.90;;;;;;5053726;28;20094;-49
2021/11/18 02:07:41;;;;;;;26.48;18.20;;;6.20;99.90;;;;;;5054834;28;20033;-56
2021/11/18 02:10:07;;;;;;;29.33;17.88;;;6.20;99.90;;;;;;5053987;28;20139;-54
2021/11/18 02:12:33;;;;;;;26.27;18.20;;;6.20;99.90;;;;;;5055436;28;20107;-57
2021/11/18 02:14:59;;;;;;;29.48;17.83;;;6.20;99.90;;;;;;5055769;28;20021;-57
2021/11/18 02:17:28;;;;;;;29.23;18.85;;;6.20;99.90;;;;;;5055433;28;20052;-53
2021/11/18 02:19:56;;;;;;;29.38;18.50;;;6.20;99.90;;;;;;5043067;28;20039;-58
2021/11/18 02:22:23;;;;;;;29.02;17.98;;;6.20;99.90;;;;;;5055464;28;20025;-56
2021/11/18 02:25:03;;;;;;;28.58;17.10;;;6.20;99.90;;;;;;5055663;28;20044;-54
2021/11/18 02:27:30;;;;;;;26.13;17.15;;;6.20;99.90;;;;;;5055762;28;20507;-54
2021/11/18 02:29:58;;;;;;;24.80;16.10;;;6.20;99.90;;;;;;5055254;28;20035;-56
2021/11/18 02:32:29;;;;;;;26.95;18.05;;;6.30;99.90;;;;;;5055115;28;20524;-56
2021/11/18 02:35:07;;;;;;;29.48;18.02;;;6.10;99.90;;;;;;5055280;28;20074;-55
2021/11/18 02:37:33;;;;;;;27.13;18.10;;;6.00;99.90;;;;;;5054973;28;20496;-56
2021/11/18 02:39:59;;;;;;;29.65;18.33;;;6.00;99.90;;;;;;5055051;28;20438;-54
2021/11/18 02:42:26;;;;;;;27.15;18.10;;;6.00;99.90;;;;;;5055736;28;20021;-53
2021/11/18 02:44:51;;;;;;;28.23;16.95;;;6.00;99.90;;;;;;5055860;28;20021;-56
2021/11/18 02:47:17;;;;;;;26.02;17.63;;;6.00;99.90;;;;;;5056136;28;20485;-52
2021/11/18 02:49:48;;;;;;;29.45;16.63;;;6.00;99.90;;;;;;5056277;28;20032;-53
2021/11/18 02:52:25;;;;;;;24.67;15.85;;;6.00;99.90;;;;;;5055886;28;20436;-58
2021/11/18 02:54:50;;;;;;;25.52;15.93;;;6.00;99.90;;;;;;5055426;28;20029;-56
2021/11/18 02:57:16;;;;;;;27.20;17.00;;;6.00;99.90;;;;;;5055075;28;20035;-55
2021/11/18 02:59:41;;;;;;;22.75;15.57;;;6.00;99.90;;;;;;5054892;28;20075;-50
2021/11/18 03:02:07;;;;;;;29.75;16.55;;;6.10;99.90;;;;;;5054602;28;20033;-52
2021/11/18 03:04:34;;;;;;;26.52;15.10;;;6.10;99.90;;;;;;5054802;28;20473;-52
2021/11/18 03:07:00;;;;;;;23.15;15.23;;;6.10;99.90;;;;;;5054744;28;20084;-57
2021/11/18 03:09:27;;;;;;;25.00;16.25;;;6.10;99.90;;;;;;5054950;28;20033;-53
2021/11/18 03:11:53;;;;;;;29.65;16.30;;;6.10;99.90;;;;;;5054740;28;20041;-52
2021/11/18 03:14:21;;;;;;;24.35;15.07;;;6.20;99.90;;;;;;5053822;28;20036;-54
2021/11/18 03:16:47;;;;;;;30.20;16.25;;;6.20;99.90;;;;;;5052441;28;20033;-52
2021/11/18 03:19:13;;;;;;;24.83;16.02;;;6.30;99.90;;;;;;5054007;28;20472;-57
2021/11/18 03:21:39;;;;;;;30.25;14.80;;;6.30;99.90;;;;;;5054185;28;20078;-56
2021/11/18 03:24:05;;;;;;;25.20;15.15;;;6.30;99.90;;;;;;5053325;28;20037;-55
2021/11/18 03:26:32;;;;;;;26.02;14.63;;;6.30;99.90;;;;;;5054961;28;20044;-55
2021/11/18 03:28:58;;;;;;;24.33;15.60;;;6.30;99.90;;;;;;5054281;28;20045;-55
2021/11/18 03:31:24;;;;;;;25.17;15.88;;;6.30;99.90;;;;;;5054498;28;20033;-54
2021/11/18 03:33:57;;;;;;;26.23;15.23;;;6.30;99.90;;;;;;5054879;28;20049;-54
2021/11/18 03:36:25;;;;;;;23.58;15.15;;;6.30;99.90;;;;;;5054040;28;20028;-53
2021/11/18 03:38:52;;;;;;;24.00;15.65;;;6.20;99.90;;;;;;5054937;28;20464;-53
2021/11/18 03:41:19;;;;;;;24.60;15.43;;;6.20;99.90;;;;;;5073698;28;20479;-58
2021/11/18 03:43:51;;;;;;;24.05;14.73;;;6.30;99.90;;;;;;5074721;28;20078;-53
2021/11/18 03:46:20;;;;;;;22.38;14.25;;;6.20;99.90;;;;;;5074024;28;20040;-56
2021/11/18 03:48:46;;;;;;;26.35;15.00;;;6.30;99.90;;;;;;5074034;28;20036;-57
2021/11/18 03:51:12;;;;;;;24.83;15.23;;;6.30;99.90;;;;;;5071790;28;20512;-57
2021/11/18 03:53:39;;;;;;;23.77;14.55;;;6.30;99.90;;;;;;5073646;28;20035;-56
2021/11/18 03:56:09;;;;;;;25.05;14.68;;;6.30;99.90;;;;;;5073997;28;20032;-53
2021/11/18 03:58:35;;;;;;;28.48;14.45;;;6.40;99.90;;;;;;5074239;28;20380;-52
2021/11/18 04:01:02;;;;;;;24.60;13.25;;;6.30;99.90;;;;;;5072999;28;20032;-55
2021/11/18 04:03:28;;;;;;;29.83;15.05;;;6.40;99.90;;;;;;5074171;28;20036;-51
2021/11/18 04:05:55;;;;;;;28.25;15.48;;;6.40;99.90;;;;;;5073985;28;20040;-58
2021/11/18 04:08:20;;;;;;;21.17;12.90;;;6.40;99.90;;;;;;5075475;28;20388;-54
2021/11/18 04:10:46;;;;;;;19.60;13.02;;;6.40;99.90;;;;;;5073667;28;20025;-59
2021/11/18 04:13:11;;;;;;;20.80;13.85;;;6.40;99.90;;;;;;5070702;28;20095;-53
2021/11/18 04:15:37;;;;;;;25.95;14.95;;;6.40;99.90;;;;;;5054645;28;20032;-50
2021/11/18 04:18:03;;;;;;;23.75;13.95;;;6.30;99.90;;;;;;5053000;28;20125;-50
2021/11/18 04:20:30;;;;;;;29.23;13.18;;;6.30;99.90;;;;;;5052861;28;20035;-50
2021/11/18 04:22:56;;;;;;;20.90;13.63;;;6.40;99.90;;;;;;5053221;28;20500;-50
2021/11/18 04:25:26;;;;;;;25.42;13.48;;;6.30;99.90;;;;;;5053346;28;20029;-55
2021/11/18 04:27:52;;;;;;;24.02;14.20;;;6.30;99.90;;;;;;5053576;28;20021;-52
2021/11/18 04:30:21;;;;;;;24.67;14.65;;;6.40;99.90;;;;;;5053189;28;20025;-57
2021/11/18 04:32:47;;;;;;;24.85;13.90;;;6.40;99.90;;;;;;5053411;28;20021;-53
2021/11/18 04:35:14;;;;;;;24.85;14.13;;;6.40;99.90;;;;;;5051861;28;20036;-59
2021/11/18 04:37:40;;;;;;;27.48;13.77;;;6.40;99.90;;;;;;5053051;28;20047;-58
2021/11/18 04:40:06;;;;;;;23.60;13.68;;;6.40;99.90;;;;;;5063697;28;20032;-52
2021/11/18 04:42:32;;;;;;;26.13;13.68;;;6.40;99.90;;;;;;5073463;28;20031;-56
2021/11/18 04:44:57;;;;;;;31.55;14.65;;;6.40;99.90;;;;;;5073982;28;20029;-52
2021/11/18 04:47:24;;;;;;;25.42;13.88;;;6.20;99.90;;;;;;5071822;28;20033;-56
2021/11/18 04:49:50;;;;;;;23.88;14.43;;;6.20;99.90;;;;;;5072605;28;20082;-54
2021/11/18 04:52:17;;;;;;;28.05;14.27;;;6.20;99.90;;;;;;5073275;28;20435;-56
2021/11/18 04:54:44;;;;;;;19.00;12.82;;;6.20;99.90;;;;;;5071873;28;20035;-54
2021/11/18 04:57:10;;;;;;;25.38;12.73;;;6.40;99.90;;;;;;5073311;28;20032;-55
2021/11/18 04:59:36;;;;;;;26.67;13.05;;;6.40;99.90;;;;;;5072913;28;20056;-57
2021/11/18 05:02:02;;;;;;;23.73;12.65;;;6.50;99.90;;;;;;5073098;28;20469;-53
2021/11/18 05:04:28;;;;;;;24.33;12.55;;;6.50;99.90;;;;;;5072916;28;20484;-55
2021/11/18 05:06:54;;;;;;;22.60;13.27;;;6.50;99.90;;;;;;5072929;28;20044;-54
2021/11/18 05:09:19;;;;;;;21.10;12.18;;;6.60;99.90;;;;;;5072303;28;20032;-53
2021/11/18 05:11:46;;;;;;;27.50;11.88;;;6.60;99.90;;;;;;5071251;28;20033;-52
2021/11/18 05:14:12;;;;;;;20.50;10.63;;;6.60;99.90;;;;;;5061179;28;20040;-53
2021/11/18 05:16:38;;;;;;;21.55;12.25;;;6.60;99.90;;;;;;5053343;28;20041;-57
2021/11/18 05:19:05;;;;;;;23.45;12.07;;;6.70;99.90;;;;;;5052610;28;20037;-55
2021/11/18 05:21:31;;;;;;;27.08;12.50;;;6.60;99.90;;;;;;5053338;28;20128;-56
2021/11/18 05:23:59;;;;;;;20.88;11.25;;;6.70;99.90;;;;;;5053227;28;20048;-55
2021/11/18 05:26:26;;;;;;;24.45;13.38;;;6.80;99.90;;;;;;5052820;28;20021;-55
2021/11/18 05:28:52;;;;;;;25.23;12.77;;;6.60;99.90;;;;;;5052439;28;20111;-52
2021/11/18 05:31:21;;;;;;;22.63;12.30;;;6.60;99.90;;;;;;5049983;28;20108;-54
2021/11/18 05:33:47;;;;;;;21.77;13.85;;;6.60;99.90;;;;;;5052292;28;20103;-53
2021/11/18 05:36:14;;;;;;;24.17;12.98;;;6.60;99.90;;;;;;5052737;28;20545;-57
2021/11/18 05:38:40;;;;;;;24.73;12.85;;;6.70;99.90;;;;;;5052550;28;20257;-56
2021/11/18 05:41:06;;;;;;;23.15;12.85;;;6.70;99.90;;;;;;5075203;28;20162;-52
2021/11/18 05:43:35;;;;;;;26.85;13.73;;;6.80;99.90;;;;;;5075271;28;20037;-54
2021/11/18 05:46:02;;;;;;;25.73;13.30;;;6.70;99.90;;;;;;5076518;28;20037;-56
2021/11/18 05:48:28;;;;;;;23.15;12.02;;;6.70;99.90;;;;;;5075606;28;20029;-55
2021/11/18 05:50:56;;;;;;;23.65;11.73;;;6.80;99.90;;;;;;5075448;28;20041;-54
2021/11/18 05:53:25;;;;;;;23.25;12.55;;;6.70;99.90;;;;;;5075649;28;20111;-55
2021/11/18 05:55:53;;;;;;;22.52;12.38;;;6.70;99.90;;;;;;5076030;28;20159;-54
2021/11/18 05:58:19;;;;;;;19.52;11.32;;;6.70;99.90;;;;;;5076100;28;20480;-54
2021/11/18 06:00:46;;;;;;;19.58;10.93;;;6.80;99.90;;;;;;5075234;28;20040;-53
2021/11/18 06:03:12;;;;;;;20.55;11.85;;;6.80;99.90;;;;;;5075796;28;20032;-55
2021/11/18 06:05:38;;;;;;;22.50;12.73;;;6.80;99.90;;;;;;5076335;28;20070;-56
2021/11/18 06:08:04;;;;;;;23.17;12.02;;;6.80;99.90;;;;;;5076276;28;20025;-52
2021/11/18 06:10:32;;;;;;;20.83;12.25;;;6.80;99.90;;;;;;5076200;28;20542;-56
2021/11/18 06:12:58;;;;;;;25.40;13.18;;;6.90;99.90;;;;;;5074636;28;20056;-53
2021/11/18 06:15:24;;;;;;;20.10;11.98;;;6.80;99.90;;;;;;5054462;28;20048;-52
2021/11/18 06:17:50;;;;;;;22.85;11.90;;;6.70;99.90;;;;;;5055355;28;20045;-53
2021/11/18 06:20:16;;;;;;;20.65;12.07;;;6.80;99.90;;;;;;5055297;28;20029;-55
2021/11/18 06:22:43;;;;;;;24.33;12.05;;;6.70;99.90;;;;;;5056274;28;20118;-55
2021/11/18 06:25:11;;;;;;;19.65;12.27;;;6.80;99.90;;;;;;5055916;28;20033;-54
2021/11/18 06:27:41;;;;;;;23.15;11.73;;;6.90;99.90;;;;;;5055926;28;20068;-52
2021/11/18 06:30:13;;;;;;;22.55;12.13;;;6.80;99.90;;;;;;5035762;28;20033;-56
2021/11/18 06:32:38;;;;;;;21.80;12.70;;;6.80;99.90;;;;;;5071265;28;20031;-56
2021/11/18 06:35:04;;;;;;;30.38;13.10;;;6.80;99.90;;;;;;5076191;28;20044;-55
2021/11/18 06:37:30;;;;;;;28.70;12.95;;;6.90;99.90;;;;;;5076319;28;20046;-56
2021/11/18 06:39:55;;;;;;;23.38;12.45;;;6.80;99.90;;;;;;5076833;28;20520;-56
2021/11/18 06:42:21;;;;;;;21.40;13.48;;;6.80;99.90;;;;;;5076466;28;20468;-55
2021/11/18 06:44:46;;;;;;;24.65;12.57;;;6.80;99.90;;;;;;5074732;28;20024;-60
2021/11/18 06:47:12;;;;;;;25.85;13.48;;;6.80;99.90;;;;;;5075872;28;20028;-55
2021/11/18 06:49:37;;;;;;;31.40;14.75;;;6.80;99.90;;;;;;5075233;28;20395;-55
2021/11/18 06:52:05;;;;;;;30.60;13.93;;;6.70;99.90;;;;;;5076318;28;20393;-53
2021/11/18 06:54:31;;;;;;;24.98;13.70;;;6.70;99.90;;;;;;5077566;28;20039;-54
2021/11/18 06:56:57;;;;;;;27.58;14.10;;;6.70;99.90;;;;;;5076021;28;20060;-55
2021/11/18 06:59:23;;;;;;;23.63;13.75;;;6.70;99.90;;;;;;5074599;28;20063;-56
2021/11/18 07:01:50;;;;;;;25.25;14.10;;;6.70;99.90;;;;;;5074493;28;20036;-51
2021/11/18 07:04:17;;;;;;;22.23;12.93;;;6.80;99.90;;;;;;5075508;28;20124;-53
2021/11/18 07:06:43;;;;;;;25.60;13.07;;;6.80;99.90;;;;;;5074818;28;20139;-58
2021/11/18 07:09:10;;;;;;;25.63;14.10;;;6.80;99.90;;;;;;5074661;28;20036;-55
2021/11/18 07:11:36;;;;;;;23.75;13.77;;;6.80;99.90;;;;;;5072671;28;20028;-54
2021/11/18 07:14:03;;;;;;;25.10;13.85;;;6.70;99.90;;;;;;5063757;28;20552;-53
2021/11/18 07:16:29;;;;;;;21.98;13.30;;;6.70;99.90;;;;;;5072504;28;20044;-55
2021/11/18 07:18:56;;;;;;;23.88;13.50;;;6.80;99.90;;;;;;5075056;28;20036;-56
2021/11/18 07:21:24;;;;;;;27.50;13.35;;;6.80;99.90;;;;;;5068411;28;20037;-53
2021/11/18 07:23:55;;;;;;;22.10;12.65;;;6.90;99.90;;;;;;5054693;28;20036;-57
2021/11/18 07:26:21;;;;;;;22.05;12.55;;;6.90;99.90;;;;;;5054500;28;20037;-55
2021/11/18 07:28:47;;;;;;;21.10;12.13;;;7.00;99.90;;;;;;5054381;28;20057;-56
2021/11/18 07:31:14;;;;;;;19.83;12.60;;;7.00;99.90;;;;;;5053534;28;20504;-54
2021/11/18 07:33:40;;;;;;;24.05;12.15;;;7.10;99.90;;;;;;5054573;28;20036;-57
2021/11/18 07:36:07;;;;;;;24.23;12.88;;;7.00;99.90;;;;;;5044164;28;20052;-57
2021/11/18 07:38:34;;;;;;;19.42;11.70;;;7.00;99.90;;;;;;5038145;28;20533;-57
2021/11/18 07:41:00;;;;;;;20.70;12.45;;;7.00;99.90;;;;;;5052254;28;20028;-56
2021/11/18 07:43:29;;;;;;;19.48;12.15;;;7.10;99.90;;;;;;5044956;28;20083;-58
2021/11/18 07:45:58;;;;;;;25.73;12.45;;;7.10;99.90;;;;;;5034497;28;20577;-55
2021/11/18 07:48:24;;;;;;;24.73;12.52;;;7.10;99.90;;;;;;5033639;28;20057;-55
2021/11/18 07:50:49;;;;;;;23.35;12.45;;;7.20;99.90;;;;;;5033997;28;20456;-55
2021/11/18 07:53:15;;;;;;;22.10;12.18;;;7.20;99.90;;;;;;5053894;28;20477;-54
2021/11/18 07:55:42;;;;;;;26.63;13.63;;;7.20;99.90;;;;;;5053961;28;20031;-54
2021/11/18 07:58:07;;;;;;;26.02;12.65;;;7.20;99.90;;;;;;5054016;28;20029;-52
2021/11/18 08:00:33;;;;;;;25.23;13.00;;;7.20;99.90;;;;;;5054464;28;20045;-57
2021/11/18 08:03:05;;;;;;;21.98;10.77;;;7.30;99.90;;;;;;5044938;28;20370;-56
2021/11/18 08:05:31;;;;;;;20.25;12.20;;;7.30;99.90;;;;;;5042260;28;20091;-55
2021/11/18 08:07:56;;;;;;;21.58;11.95;;;7.40;99.90;;;;;;5041279;28;20029;-59
2021/11/18 08:10:22;;;;;;;23.95;12.27;;;7.40;99.90;;;;;;5042229;28;20090;-58
2021/11/18 08:12:48;;;;;;;25.35;12.13;;;7.50;99.90;;;;;;5037307;28;20068;-54
2021/11/18 08:15:15;;;;;;;18.83;11.60;;;7.50;99.90;;;;;;5054145;28;20032;-55
2021/11/18 08:17:41;;;;;;;33.78;12.43;;;7.60;99.90;;;;;;5050564;28;20384;-56
2021/11/18 08:20:08;;;;;;;22.80;11.50;;;7.70;99.90;;;;;;5037262;28;20141;-57
2021/11/18 08:22:34;;;;;;;29.98;13.35;;;7.80;99.90;;;;;;5045427;28;20451;-56
2021/11/18 08:25:00;;;;;;;19.20;10.00;;;7.70;99.90;;;;;;5043062;28;20100;-54
2021/11/18 08:27:25;;;;;;;24.77;11.05;;;7.80;99.90;;;;;;5041954;28;20115;-54
2021/11/18 08:29:51;;;;;;;24.48;11.88;;;7.90;99.90;;;;;;5042495;28;20033;-55
2021/11/18 08:32:17;;;;;;;25.60;11.25;;;7.80;99.90;;;;;;5036731;28;20030;-56
2021/11/18 08:34:44;;;;;;;23.67;10.18;;;7.90;99.90;;;;;;5041554;28;20524;-56
2021/11/18 08:37:11;;;;;;;23.45;11.27;;;7.90;99.90;;;;;;5053385;28;20488;-55
2021/11/18 08:39:38;;;;;;;23.25;9.73;;;7.90;99.90;;;;;;5052286;28;20037;-56
2021/11/18 08:42:06;;;;;;;20.67;10.35;;;7.90;99.90;;;;;;5045577;28;20040;-53
2021/11/18 08:44:34;;;;;;;15.68;10.00;;;8.10;99.90;;;;;;5041806;28;20061;-56
2021/11/18 08:47:01;;;;;;;22.17;9.95;;;8.20;99.90;;;;;;5041657;28;20072;-50
2021/11/18 08:49:28;;;;;;;20.00;9.00;;;8.30;99.90;;;;;;5042933;28;20415;-54
2021/11/18 08:51:56;;;;;;;22.65;10.88;;;8.40;99.90;;;;;;5042848;28;20049;-53
2021/11/18 08:54:25;;;;;;;20.45;10.95;;;8.50;99.90;;;;;;5040703;28;20064;-56
2021/11/18 08:56:52;;;;;;;19.60;10.02;;;8.40;99.90;;;;;;5042624;28;20024;-53
2021/11/18 08:59:20;;;;;;;22.55;11.15;;;8.40;99.90;;;;;;5040430;28;20086;-51
2021/11/18 09:01:51;;;;;;;20.65;9.75;;;8.50;99.90;;;;;;5038502;28;20033;-56
2021/11/18 09:04:19;;;;;;;17.50;10.07;;;8.40;99.90;;;;;;5040894;28;20030;-53
2021/11/18 09:06:46;;;;;;;25.50;9.70;;;8.40;99.90;;;;;;5046207;28;20045;-56
2021/11/18 09:09:14;;;;;;;25.58;11.18;;;8.50;99.90;;;;;;5041344;28;20512;-58
2021/11/18 09:11:40;;;;;;;20.40;9.80;;;8.40;99.90;;;;;;5040767;28;20052;-59
2021/11/18 09:14:07;;;;;;;18.88;9.48;;;8.50;99.90;;;;;;5039210;28;20436;-54
2021/11/18 09:16:36;;;;;;;22.92;10.40;;;8.50;99.90;;;;;;5042965;28;20045;-53
2021/11/18 09:19:07;;;;;;;21.75;9.98;;;8.50;99.90;;;;;;5043230;28;20117;-62
2021/11/18 09:21:33;;;;;;;23.95;10.27;;;8.80;99.90;;;;;;5045114;28;20121;-56
2021/11/18 09:24:05;;;;;;;24.00;10.77;;;8.70;99.90;;;;;;5055012;28;20032;-59
2021/11/18 09:26:34;;;;;;;22.83;10.77;;;8.80;99.90;;;;;;5043831;28;20025;-53
2021/11/18 09:29:00;;;;;;;23.38;11.00;;;8.80;99.90;;;;;;5040182;28;20033;-58
2021/11/18 09:31:27;;;;;;;22.15;10.93;;;8.90;99.90;;;;;;5042045;28;20083;-56
2021/11/18 09:33:54;;;;;;;23.33;11.02;;;8.80;99.90;;;;;;5052319;28;20025;-57
2021/11/18 09:36:22;;;;;;;21.00;10.65;;;8.90;99.90;;;;;;5035297;28;20517;-53
2021/11/18 09:38:49;;;;;;;17.58;9.65;;;8.80;99.90;;;;;;5034715;28;20037;-54
2021/11/18 09:41:51;;;;;;;20.65;10.65;;;8.80;99.90;;;;;;5035633;28;20060;-56
2021/11/18 09:44:31;;;;;;;27.15;11.65;;;9.10;99.90;;;;;;5051512;28;20028;-57
2021/11/18 09:47:30;;;;;;;24.52;10.63;;;9.10;99.90;;;;;;5056692;28;20021;-54
2021/11/18 09:50:31;;;;;;;23.02;9.90;;;9.20;99.90;;;;;;5056347;28;20476;-56
2021/11/18 09:53:18;;;;;;;25.95;10.70;;;9.20;99.90;;;;;;4978116;28;20097;-61
2021/11/18 09:55:50;;;;;;;20.25;9.93;;;9.20;99.90;;;;;;5052522;28;20056;-56
2021/11/18 09:58:18;;;;;;;22.27;10.50;;;9.30;99.90;;;;;;5056822;28;20060;-54
2021/11/18 10:01:25;;;;;;;24.42;10.68;;;9.30;99.90;;;;;;5056141;28;20025;-56
2021/11/18 10:04:18;;;;;;;24.45;10.18;;;9.30;99.90;;;;;;5056743;28;20153;-56
2021/11/18 10:06:46;;;;;;;18.00;10.27;;;9.40;99.90;;;;;;5056013;28;20388;-58
2021/11/18 10:09:15;;;;;;;25.65;10.20;;;9.50;99.90;;;;;;5054900;28;20065;-53
2021/11/18 10:11:50;;;;;;;22.00;9.63;;;9.60;99.90;;;;;;5055180;28;20064;-58
2021/11/18 10:14:34;;;;;;;;;;;9.70;99.90;;;;;;5057073;28;20044;-59
2021/11/18 10:17:10;;;;;;;25.00;10.02;;;9.70;99.90;;;;;;5055454;28;19913;-53
2021/11/18 10:19:42;;;;;;;23.27;10.48;;;9.50;99.90;;;;;;5055629;28;20175;-56
2021/11/18 10:22:10;;;;;;;21.88;10.38;;;9.50;99.90;;;;;;5056132;28;20036;-55
2021/11/18 10:24:39;;;;;;;23.33;10.35;;;9.60;99.90;;;;;;5054648;28;20033;-55
2021/11/18 10:27:11;;;;;;;24.52;11.10;;;9.60;99.90;;;;;;5060542;28;20049;-54
2021/11/18 10:30:08;;;;;;;26.85;9.98;;;9.70;99.90;;;;;;5070871;28;20075;-56
2021/11/18 10:32:49;;;;;;;22.67;10.18;;;9.80;99.90;;;;;;5054328;28;20108;-56
2021/11/18 10:35:24;;;;;;;22.05;10.02;;;9.90;99.90;;;;;;5056416;28;20036;-53
2021/11/18 10:37:51;;;;;;;18.50;9.93;;;9.90;99.90;;;;;;5056017;28;20029;-54
2021/11/18 10:40:29;;;;;;;23.00;10.75;;;10.00;99.90;;;;;;5055340;28;20025;-56
2021/11/18 10:43:17;;;;;;;25.98;10.25;;;9.90;99.90;;;;;;5055082;28;20388;-54
2021/11/18 10:46:05;;;;;;;20.17;9.90;;;9.90;99.90;;;;;;5056652;28;20024;-52
2021/11/18 10:48:34;;;;;;;15.82;8.50;;;10.00;99.90;;;;;;5024080;28;20040;-54
2021/11/18 10:51:11;;;;;;;18.67;9.88;;;10.10;99.90;;;;;;5053522;28;20039;-55
2021/11/18 10:53:58;;;;;;;23.30;9.60;;;10.20;99.90;;;;;;5055608;28;20078;-54
2021/11/18 10:56:39;;;;;;;21.50;9.43;;;10.20;99.90;;;;;;5056221;28;20037;-53
2021/11/18 10:59:30;;;;;;;26.25;10.93;;;10.30;99.90;;;;;;5055306;28;20033;-55
2021/11/18 11:01:57;;;;;;;20.02;9.55;;;10.40;99.90;;;;;;5055982;28;20025;-55
2021/11/18 11:04:38;;;;;;;17.55;9.50;;;10.30;99.90;;;;;;5055977;28;20041;-50
2021/11/18 11:07:05;;;;;;;21.38;9.05;;;10.30;99.90;;;;;;5054794;28;20036;-55
2021/11/18 11:09:37;;;;;;;18.15;8.75;;;10.50;99.90;;;;;;5056488;28;20041;-56
2021/11/18 11:12:16;;;;;;;22.98;9.27;;;10.50;99.90;;;;;;5055967;28;20511;-56
2021/11/18 11:15:04;;;;;;;25.27;9.98;;;10.60;99.90;;;;;;5050282;28;20128;-57
2021/11/18 11:17:56;;;;;;;18.02;9.23;;;10.50;99.90;;;;;;5044509;28;20037;-56
2021/11/18 11:20:42;;;;;;;22.30;9.40;;;10.50;99.90;;;;;;5033981;28;20033;-54
2021/11/18 11:23:35;;;;;;;19.52;9.07;;;10.40;99.90;;;;;;5034296;28;20083;-59
2021/11/18 11:26:23;;;;;;;21.17;9.02;;;10.40;99.90;;;;;;5039886;28;20107;-58
2021/11/18 11:29:13;;;;;;;18.85;9.18;;;10.40;99.90;;;;;;5059702;28;20044;-53
2021/11/18 11:32:03;;;;;;;22.48;10.07;;;10.30;99.90;;;;;;5054725;28;20535;-57
2021/11/18 11:34:41;;;;;;;17.80;8.88;;;10.30;99.90;;;;;;5054462;28;20033;-54
2021/11/18 11:37:52;;;;;;;22.73;8.80;;;10.30;99.90;;;;;;5052299;28;20110;-55
2021/11/18 11:40:55;;;;;;;23.23;9.05;;;10.50;99.90;;;;;;5020217;28;20033;-59
2021/11/18 11:43:45;;;;;;;19.70;9.20;;;10.60;99.70;;;;;;5033929;28;20473;-56
2021/11/18 11:46:31;;;;;;;20.00;8.85;;;10.60;99.90;;;;;;5033696;28;20033;-58
2021/11/18 11:48:59;;;;;;;16.00;7.80;;;10.50;99.60;;;;;;5034035;28;20029;-52
2021/11/18 11:52:02;;;;;;;16.33;8.45;;;10.40;99.60;;;;;;5032465;28;20041;-56
2021/11/18 11:55:06;;;;;;;18.05;9.18;;;10.50;99.80;;;;;;5034453;28;20025;-57
2021/11/18 11:58:02;;;;;;;22.08;9.60;;;10.70;99.90;;;;;;5044973;28;20028;-54
2021/11/18 12:00:44;;;;;;;21.52;9.65;;;10.70;99.90;;;;;;5041750;28;20029;-58
2021/11/18 12:03:14;;;;;;;17.67;9.82;;;10.60;99.90;;;;;;5044287;28;20021;-56
2021/11/18 12:05:54;;;;;;;21.48;10.35;;;10.60;99.90;;;;;;5042821;28;20039;-55
2021/11/18 12:08:44;;;;;;;16.83;8.98;;;10.60;99.90;;;;;;5048879;28;20104;-60
2021/11/18 12:11:14;;;;;;;20.85;10.07;;;10.50;99.90;;;;;;5050286;28;20029;-59
2021/11/18 12:13:57;;;;;;;26.85;10.13;;;10.50;99.90;;;;;;5053736;28;20033;-56
2021/11/18 12:16:31;;;;;;;19.73;9.52;;;10.60;99.90;;;;;;5053066;28;20020;-60
2021/11/18 12:19:12;;;;;;;18.00;9.23;;;10.70;99.90;;;;;;5053364;28;20044;-57
2021/11/18 12:21:38;;;;;;;32.15;10.90;;;10.60;99.90;;;;;;5053385;28;20041;-56
2021/11/18 12:24:13;;;;;;;18.75;9.65;;;10.70;99.90;;;;;;5053233;28;20047;-59
2021/11/18 12:26:44;;;;;;;20.75;9.30;;;10.60;99.90;;;;;;5060971;28;20036;-57
2021/11/18 12:29:26;;;;;;;20.63;9.55;;;10.70;99.90;;;;;;5054180;28;20112;-58
2021/11/18 12:32:00;;;;;;;20.33;9.55;;;10.80;99.90;;;;;;5049465;28;20024;-58
2021/11/18 12:34:47;;;;;;;19.67;10.85;;;10.80;99.90;;;;;;5043346;28;20092;-59
2021/11/18 12:37:36;;;;;;;20.77;11.18;;;10.80;99.90;;;;;;5032805;28;20563;-59
2021/11/18 12:40:05;;;;;;;24.67;10.65;;;11.00;99.90;;;;;;5044907;28;20033;-59
2021/11/18 12:43:06;;;;;;;17.92;9.93;;;11.10;99.70;;;;;;5049151;28;20025;-60
2021/11/18 12:45:43;;;;;;;20.45;8.90;;;11.10;99.60;;;;;;5044420;28;20037;-62
2021/11/18 12:48:12;;;;;;;17.17;8.77;;;11.00;99.40;;;;;;5052503;28;20086;-61
2021/11/18 12:51:03;;;;;;;15.40;9.15;;;11.00;99.40;;;;;;5052211;28;20039;-60
2021/11/18 12:53:34;;;;;;;16.00;8.13;;;11.10;99.30;;;;;;5052446;28;20132;-59
2021/11/18 12:56:09;;;;;;;16.00;7.97;;;11.20;99.00;;;;;;5052900;28;20033;-59